Henderson, Louisiana
Current Conditions -  °F | °C
As of 7:53 AM on Friday 24 Oct 2014 (Local Time) from KLFT Reporting Station
Clear Clear  
Wind Chill: 51°   Ceiling: Unl
Heat Index: 51°   Visibility: 10mi
Dew Point: 49°   Wind: 5mph
Humidity: 92%   Direction: 10°N
Pressure: 30.13"   Gusts: NA
Location:  30.2731°N, 91.9325°W
Report Text: KLFT 241253Z 01004KT 10SM CLR 11/09 A3013 RMK AO2 SLP203 T01060094
Loading
Personal Weather Stations






























Interactive Weather Map
Tropical Storm Tracking
New forecast layout! Learn more

10-Day Weather Forecast

Advertisements
Track Severe Weather on mobile